Auroraville, Wisconsin
Current Conditions -  °F | °C
As of 7:56 AM on Sunday 25 Jan 2015 (Local Time) from KY50 Reporting Station
Overcast Overcast  
Wind Chill:   Ceiling: 2000
Heat Index: 21°   Visibility: 10mi
Dew Point: 13°   Wind: 15mph
Humidity: 71%   Direction: 60°ENE
Pressure: 29.92"   Gusts: 24mph
Location:  43.9938°N, 88.9686°W
Report Text: KY50 251356Z AUTO 06013G21KT 10SM OVC020 M06/M11 A2992 RMK AO2 TSNO T10611105 SLP140
Loading
Personal Weather Stations






























Interactive Weather Map New forecast layout! Learn more

10-Day Weather Forecast

Advertisements
Track Severe Weather on mobile